AUF weather

Auxerre-Branches Airport
Auxerre/Branches, Burgundy, France

Public forecast

Using degrees Celsius for public forecast. Weather courtesy of forecast.io.

METAR (pilot weather report)

Closest report is Troyes-Barberey Airport, 35.2 nm (65.1 km) NE. Retrieved 2019/05/21 03:30 UTC (0 seconds ago):

LFQB 210330Z AUTO VRB01KT 4800 BR NSC 08/07 Q1014

TAF (pilot weather forecast)

Forecast is more than 6 hours old.

Closest forecast is Avord (BA 702) Air Base, 59.3 nm (109.9 km) SW. Retrieved 2019/05/20 17:18 UTC (10 hours ago):

TAF LFOA 201711Z 2017/2115 CNL